sensor_id;sensor_type;location;lat;lon;timestamp;P1;durP1;ratioP1;P2;durP2;ratioP2
12947;SDS011;6539;49.476;8.484;2022-12-07T00:01:36;10.80;;;6.90;;
12947;SDS011;6539;49.476;8.484;2022-12-07T00:04:07;8.80;;;6.63;;
12947;SDS011;6539;49.476;8.484;2022-12-07T00:06:36;7.83;;;5.87;;
12947;SDS011;6539;49.476;8.484;2022-12-07T00:09:06;8.17;;;5.80;;
12947;SDS011;6539;49.476;8.484;2022-12-07T00:11:39;7.63;;;5.93;;
12947;SDS011;6539;49.476;8.484;2022-12-07T00:14:06;11.70;;;6.93;;
12947;SDS011;6539;49.476;8.484;2022-12-07T00:16:40;11.33;;;6.60;;
12947;SDS011;6539;49.476;8.484;2022-12-07T00:19:10;8.80;;;6.30;;
12947;SDS011;6539;49.476;8.484;2022-12-07T00:21:42;8.30;;;6.33;;
12947;SDS011;6539;49.476;8.484;2022-12-07T00:24:10;8.17;;;6.53;;
12947;SDS011;6539;49.476;8.484;2022-12-07T00:26:40;8.70;;;6.57;;
12947;SDS011;6539;49.476;8.484;2022-12-07T00:29:17;10.33;;;6.30;;
12947;SDS011;6539;49.476;8.484;2022-12-07T00:31:46;10.13;;;7.00;;
12947;SDS011;6539;49.476;8.484;2022-12-07T00:34:16;10.00;;;7.07;;
12947;SDS011;6539;49.476;8.484;2022-12-07T00:36:46;11.73;;;6.37;;
12947;SDS011;6539;49.476;8.484;2022-12-07T00:39:15;8.70;;;6.43;;
12947;SDS011;6539;49.476;8.484;2022-12-07T00:41:46;8.13;;;6.47;;
12947;SDS011;6539;49.476;8.484;2022-12-07T00:44:12;9.70;;;7.13;;
12947;SDS011;6539;49.476;8.484;2022-12-07T00:46:41;9.33;;;6.87;;
12947;SDS011;6539;49.476;8.484;2022-12-07T00:49:06;8.50;;;6.60;;
12947;SDS011;6539;49.476;8.484;2022-12-07T00:51:32;8.70;;;6.10;;
12947;SDS011;6539;49.476;8.484;2022-12-07T00:54:00;9.27;;;6.20;;
12947;SDS011;6539;49.476;8.484;2022-12-07T00:56:29;10.50;;;6.10;;
12947;SDS011;6539;49.476;8.484;2022-12-07T00:58:59;9.47;;;6.97;;
12947;SDS011;6539;49.476;8.484;2022-12-07T01:01:28;9.53;;;6.87;;
12947;SDS011;6539;49.476;8.484;2022-12-07T01:03:57;8.63;;;6.37;;
12947;SDS011;6539;49.476;8.484;2022-12-07T01:06:26;8.70;;;6.30;;
12947;SDS011;6539;49.476;8.484;2022-12-07T01:08:55;8.53;;;5.97;;
12947;SDS011;6539;49.476;8.484;2022-12-07T01:11:22;8.43;;;6.13;;
12947;SDS011;6539;49.476;8.484;2022-12-07T01:13:52;8.43;;;6.43;;
12947;SDS011;6539;49.476;8.484;2022-12-07T01:16:23;8.10;;;6.27;;
12947;SDS011;6539;49.476;8.484;2022-12-07T01:18:54;9.40;;;6.97;;
12947;SDS011;6539;49.476;8.484;2022-12-07T01:21:24;8.07;;;6.57;;
12947;SDS011;6539;49.476;8.484;2022-12-07T01:23:54;9.47;;;6.50;;
12947;SDS011;6539;49.476;8.484;2022-12-07T01:26:23;8.47;;;5.93;;
12947;SDS011;6539;49.476;8.484;2022-12-07T01:28:52;9.87;;;6.17;;
12947;SDS011;6539;49.476;8.484;2022-12-07T01:31:21;10.30;;;6.90;;
12947;SDS011;6539;49.476;8.484;2022-12-07T01:33:52;9.67;;;6.27;;
12947;SDS011;6539;49.476;8.484;2022-12-07T01:36:22;8.30;;;6.57;;
12947;SDS011;6539;49.476;8.484;2022-12-07T01:38:56;8.77;;;6.53;;
12947;SDS011;6539;49.476;8.484;2022-12-07T01:41:34;8.33;;;6.33;;
12947;SDS011;6539;49.476;8.484;2022-12-07T01:46:36;9.27;;;6.03;;
12947;SDS011;6539;49.476;8.484;2022-12-07T01:49:06;7.93;;;5.50;;
12947;SDS011;6539;49.476;8.484;2022-12-07T01:54:49;7.90;;;5.77;;
12947;SDS011;6539;49.476;8.484;2022-12-07T01:57:24;7.67;;;6.13;;
12947;SDS011;6539;49.476;8.484;2022-12-07T01:59:56;10.03;;;6.80;;
12947;SDS011;6539;49.476;8.484;2022-12-07T02:02:25;10.83;;;6.63;;
12947;SDS011;6539;49.476;8.484;2022-12-07T02:05:05;8.70;;;6.30;;
12947;SDS011;6539;49.476;8.484;2022-12-07T02:07:32;9.13;;;6.53;;
12947;SDS011;6539;49.476;8.484;2022-12-07T02:12:54;8.30;;;6.27;;
12947;SDS011;6539;49.476;8.484;2022-12-07T02:24:31;9.33;;;6.60;;
12947;SDS011;6539;49.476;8.484;2022-12-07T02:30:12;8.77;;;6.43;;
12947;SDS011;6539;49.476;8.484;2022-12-07T02:37:59;10.50;;;6.73;;
12947;SDS011;6539;49.476;8.484;2022-12-07T02:40:51;9.87;;;6.97;;
12947;SDS011;6539;49.476;8.484;2022-12-07T02:43:24;8.83;;;6.50;;
12947;SDS011;6539;49.476;8.484;2022-12-07T02:46:10;11.50;;;7.00;;
12947;SDS011;6539;49.476;8.484;2022-12-07T02:48:42;8.83;;;6.70;;
12947;SDS011;6539;49.476;8.484;2022-12-07T02:51:09;8.27;;;6.17;;
12947;SDS011;6539;49.476;8.484;2022-12-07T02:56:15;8.83;;;6.07;;
12947;SDS011;6539;49.476;8.484;2022-12-07T03:01:50;15.23;;;6.43;;
12947;SDS011;6539;49.476;8.484;2022-12-07T03:10:19;9.73;;;6.50;;
12947;SDS011;6539;49.476;8.484;2022-12-07T03:13:06;9.43;;;6.43;;
12947;SDS011;6539;49.476;8.484;2022-12-07T03:18:55;8.73;;;6.20;;
12947;SDS011;6539;49.476;8.484;2022-12-07T03:21:35;7.47;;;5.33;;
12947;SDS011;6539;49.476;8.484;2022-12-07T03:24:09;7.17;;;5.77;;
12947;SDS011;6539;49.476;8.484;2022-12-07T03:26:47;6.83;;;5.37;;
12947;SDS011;6539;49.476;8.484;2022-12-07T03:29:27;8.37;;;5.67;;
12947;SDS011;6539;49.476;8.484;2022-12-07T03:32:00;7.60;;;5.77;;
12947;SDS011;6539;49.476;8.484;2022-12-07T03:34:39;8.30;;;5.70;;
12947;SDS011;6539;49.476;8.484;2022-12-07T03:42:51;8.40;;;5.80;;
12947;SDS011;6539;49.476;8.484;2022-12-07T03:45:24;7.27;;;5.60;;
12947;SDS011;6539;49.476;8.484;2022-12-07T03:53:58;10.07;;;5.67;;
12947;SDS011;6539;49.476;8.484;2022-12-07T03:56:35;7.93;;;5.53;;
12947;SDS011;6539;49.476;8.484;2022-12-07T03:59:02;9.37;;;6.10;;
12947;SDS011;6539;49.476;8.484;2022-12-07T04:01:31;8.83;;;6.77;;
12947;SDS011;6539;49.476;8.484;2022-12-07T04:03:57;8.33;;;6.17;;
12947;SDS011;6539;49.476;8.484;2022-12-07T04:06:23;10.80;;;6.40;;
12947;SDS011;6539;49.476;8.484;2022-12-07T04:08:49;7.30;;;6.00;;
12947;SDS011;6539;49.476;8.484;2022-12-07T04:11:14;8.33;;;5.83;;
12947;SDS011;6539;49.476;8.484;2022-12-07T04:13:40;7.90;;;5.70;;
12947;SDS011;6539;49.476;8.484;2022-12-07T04:16:24;9.90;;;6.10;;
12947;SDS011;6539;49.476;8.484;2022-12-07T04:18:52;8.33;;;5.70;;
12947;SDS011;6539;49.476;8.484;2022-12-07T04:21:20;7.77;;;6.00;;
12947;SDS011;6539;49.476;8.484;2022-12-07T04:23:48;7.40;;;5.73;;
12947;SDS011;6539;49.476;8.484;2022-12-07T04:26:14;7.80;;;5.80;;
12947;SDS011;6539;49.476;8.484;2022-12-07T04:28:40;6.57;;;5.27;;
12947;SDS011;6539;49.476;8.484;2022-12-07T04:31:06;8.03;;;5.03;;
12947;SDS011;6539;49.476;8.484;2022-12-07T04:33:32;8.07;;;6.33;;
12947;SDS011;6539;49.476;8.484;2022-12-07T04:36:02;7.10;;;5.90;;
12947;SDS011;6539;49.476;8.484;2022-12-07T04:38:31;8.80;;;5.73;;
12947;SDS011;6539;49.476;8.484;2022-12-07T04:40:57;6.13;;;5.00;;
12947;SDS011;6539;49.476;8.484;2022-12-07T04:43:29;7.27;;;5.70;;
12947;SDS011;6539;49.476;8.484;2022-12-07T04:45:57;8.33;;;5.93;;
12947;SDS011;6539;49.476;8.484;2022-12-07T04:48:23;9.10;;;6.53;;
12947;SDS011;6539;49.476;8.484;2022-12-07T04:50:51;7.63;;;5.83;;
12947;SDS011;6539;49.476;8.484;2022-12-07T04:53:19;7.87;;;6.10;;
12947;SDS011;6539;49.476;8.484;2022-12-07T04:55:45;7.80;;;5.20;;
12947;SDS011;6539;49.476;8.484;2022-12-07T04:58:12;6.77;;;5.73;;
12947;SDS011;6539;49.476;8.484;2022-12-07T05:00:41;9.30;;;6.30;;
12947;SDS011;6539;49.476;8.484;2022-12-07T05:03:12;7.93;;;6.10;;
12947;SDS011;6539;49.476;8.484;2022-12-07T05:05:40;7.10;;;5.57;;
12947;SDS011;6539;49.476;8.484;2022-12-07T05:08:06;8.40;;;6.10;;
12947;SDS011;6539;49.476;8.484;2022-12-07T05:10:33;6.87;;;5.90;;
12947;SDS011;6539;49.476;8.484;2022-12-07T05:12:58;8.77;;;6.40;;
12947;SDS011;6539;49.476;8.484;2022-12-07T05:15:26;8.63;;;6.23;;
12947;SDS011;6539;49.476;8.484;2022-12-07T05:17:57;9.03;;;6.77;;
12947;SDS011;6539;49.476;8.484;2022-12-07T05:20:23;8.80;;;6.27;;
12947;SDS011;6539;49.476;8.484;2022-12-07T05:22:51;11.87;;;6.70;;
12947;SDS011;6539;49.476;8.484;2022-12-07T05:25:17;8.27;;;5.93;;
12947;SDS011;6539;49.476;8.484;2022-12-07T05:27:45;10.00;;;6.17;;
12947;SDS011;6539;49.476;8.484;2022-12-07T05:30:13;10.00;;;6.27;;
12947;SDS011;6539;49.476;8.484;2022-12-07T05:32:39;8.47;;;6.50;;
12947;SDS011;6539;49.476;8.484;2022-12-07T05:35:07;9.67;;;6.53;;
12947;SDS011;6539;49.476;8.484;2022-12-07T05:37:36;9.10;;;6.33;;
12947;SDS011;6539;49.476;8.484;2022-12-07T05:40:04;10.40;;;6.77;;
12947;SDS011;6539;49.476;8.484;2022-12-07T05:42:36;9.20;;;6.40;;
12947;SDS011;6539;49.476;8.484;2022-12-07T05:45:02;10.57;;;7.00;;
12947;SDS011;6539;49.476;8.484;2022-12-07T05:47:29;10.80;;;7.20;;
12947;SDS011;6539;49.476;8.484;2022-12-07T05:49:57;8.83;;;5.97;;
12947;SDS011;6539;49.476;8.484;2022-12-07T05:52:25;10.43;;;6.70;;
12947;SDS011;6539;49.476;8.484;2022-12-07T05:54:53;10.07;;;6.80;;
12947;SDS011;6539;49.476;8.484;2022-12-07T05:57:21;10.23;;;6.27;;
12947;SDS011;6539;49.476;8.484;2022-12-07T05:59:48;8.37;;;6.30;;
12947;SDS011;6539;49.476;8.484;2022-12-07T06:02:14;8.73;;;6.73;;
12947;SDS011;6539;49.476;8.484;2022-12-07T06:04:42;10.65;;;6.95;;
12947;SDS011;6539;49.476;8.484;2022-12-07T06:07:11;9.13;;;6.57;;
12947;SDS011;6539;49.476;8.484;2022-12-07T06:09:41;8.10;;;6.07;;
12947;SDS011;6539;49.476;8.484;2022-12-07T06:12:09;7.77;;;6.03;;
12947;SDS011;6539;49.476;8.484;2022-12-07T06:14:57;8.77;;;5.80;;
12947;SDS011;6539;49.476;8.484;2022-12-07T06:17:23;9.10;;;6.00;;
12947;SDS011;6539;49.476;8.484;2022-12-07T06:19:50;7.57;;;6.10;;
12947;SDS011;6539;49.476;8.484;2022-12-07T06:22:16;9.60;;;6.20;;
12947;SDS011;6539;49.476;8.484;2022-12-07T06:24:42;8.87;;;6.60;;
12947;SDS011;6539;49.476;8.484;2022-12-07T06:27:11;9.40;;;6.27;;
12947;SDS011;6539;49.476;8.484;2022-12-07T06:29:40;8.73;;;6.13;;
12947;SDS011;6539;49.476;8.484;2022-12-07T06:32:08;7.60;;;6.30;;
12947;SDS011;6539;49.476;8.484;2022-12-07T06:34:37;8.50;;;6.80;;
12947;SDS011;6539;49.476;8.484;2022-12-07T06:37:03;6.87;;;5.80;;
12947;SDS011;6539;49.476;8.484;2022-12-07T06:39:29;6.90;;;5.70;;
12947;SDS011;6539;49.476;8.484;2022-12-07T06:41:56;9.93;;;6.67;;
12947;SDS011;6539;49.476;8.484;2022-12-07T06:44:25;8.40;;;6.10;;
12947;SDS011;6539;49.476;8.484;2022-12-07T06:46:54;10.70;;;6.83;;
12947;SDS011;6539;49.476;8.484;2022-12-07T06:49:22;8.80;;;6.17;;
12947;SDS011;6539;49.476;8.484;2022-12-07T06:51:51;7.97;;;6.23;;
12947;SDS011;6539;49.476;8.484;2022-12-07T06:54:17;9.37;;;6.63;;
12947;SDS011;6539;49.476;8.484;2022-12-07T06:56:50;9.77;;;7.13;;
12947;SDS011;6539;49.476;8.484;2022-12-07T06:59:18;9.90;;;6.43;;
12947;SDS011;6539;49.476;8.484;2022-12-07T07:01:44;8.97;;;7.23;;
12947;SDS011;6539;49.476;8.484;2022-12-07T07:04:11;9.40;;;6.80;;
12947;SDS011;6539;49.476;8.484;2022-12-07T07:06:37;9.57;;;6.60;;
12947;SDS011;6539;49.476;8.484;2022-12-07T07:09:03;10.37;;;7.53;;
12947;SDS011;6539;49.476;8.484;2022-12-07T07:11:29;11.40;;;7.10;;
12947;SDS011;6539;49.476;8.484;2022-12-07T07:13:57;10.43;;;6.97;;
12947;SDS011;6539;49.476;8.484;2022-12-07T07:16:27;8.87;;;6.80;;
12947;SDS011;6539;49.476;8.484;2022-12-07T07:18:55;9.07;;;6.73;;
12947;SDS011;6539;49.476;8.484;2022-12-07T07:21:21;10.03;;;8.03;;
12947;SDS011;6539;49.476;8.484;2022-12-07T07:23:47;11.40;;;7.30;;
12947;SDS011;6539;49.476;8.484;2022-12-07T07:26:13;10.37;;;7.63;;
12947;SDS011;6539;49.476;8.484;2022-12-07T07:28:39;10.17;;;7.47;;
12947;SDS011;6539;49.476;8.484;2022-12-07T07:31:05;10.70;;;7.60;;
12947;SDS011;6539;49.476;8.484;2022-12-07T07:33:33;9.80;;;7.60;;
12947;SDS011;6539;49.476;8.484;2022-12-07T07:35:59;10.10;;;7.00;;
12947;SDS011;6539;49.476;8.484;2022-12-07T07:38:27;13.53;;;7.03;;
12947;SDS011;6539;49.476;8.484;2022-12-07T07:40:58;9.10;;;6.80;;
12947;SDS011;6539;49.476;8.484;2022-12-07T07:43:23;10.83;;;7.30;;
12947;SDS011;6539;49.476;8.484;2022-12-07T07:45:54;10.83;;;7.83;;
12947;SDS011;6539;49.476;8.484;2022-12-07T07:48:22;10.30;;;7.53;;
12947;SDS011;6539;49.476;8.484;2022-12-07T07:50:50;11.10;;;7.83;;
12947;SDS011;6539;49.476;8.484;2022-12-07T07:53:16;10.90;;;7.57;;
12947;SDS011;6539;49.476;8.484;2022-12-07T07:55:49;11.70;;;8.30;;
12947;SDS011;6539;49.476;8.484;2022-12-07T07:58:27;11.53;;;7.90;;
12947;SDS011;6539;49.476;8.484;2022-12-07T08:00:55;10.67;;;7.27;;
12947;SDS011;6539;49.476;8.484;2022-12-07T08:03:21;10.80;;;7.57;;
12947;SDS011;6539;49.476;8.484;2022-12-07T08:05:51;11.10;;;7.63;;
12947;SDS011;6539;49.476;8.484;2022-12-07T08:08:19;13.73;;;7.30;;
12947;SDS011;6539;49.476;8.484;2022-12-07T08:10:47;14.07;;;7.90;;
12947;SDS011;6539;49.476;8.484;2022-12-07T08:13:15;12.83;;;8.60;;
12947;SDS011;6539;49.476;8.484;2022-12-07T08:15:48;13.17;;;7.30;;
12947;SDS011;6539;49.476;8.484;2022-12-07T08:18:18;12.97;;;8.60;;
12947;SDS011;6539;49.476;8.484;2022-12-07T08:20:44;12.73;;;8.37;;
12947;SDS011;6539;49.476;8.484;2022-12-07T08:23:10;12.13;;;8.40;;
12947;SDS011;6539;49.476;8.484;2022-12-07T08:25:36;11.97;;;7.63;;
12947;SDS011;6539;49.476;8.484;2022-12-07T08:28:09;14.47;;;8.37;;
12947;SDS011;6539;49.476;8.484;2022-12-07T08:30:37;12.97;;;7.80;;
12947;SDS011;6539;49.476;8.484;2022-12-07T08:33:05;10.47;;;8.00;;
12947;SDS011;6539;49.476;8.484;2022-12-07T08:35:34;11.37;;;8.60;;
12947;SDS011;6539;49.476;8.484;2022-12-07T08:38:00;9.67;;;7.10;;
12947;SDS011;6539;49.476;8.484;2022-12-07T08:40:29;10.27;;;7.70;;
12947;SDS011;6539;49.476;8.484;2022-12-07T08:42:57;9.40;;;7.00;;
12947;SDS011;6539;49.476;8.484;2022-12-07T08:45:23;12.57;;;7.57;;
12947;SDS011;6539;49.476;8.484;2022-12-07T08:47:57;9.60;;;7.43;;
12947;SDS011;6539;49.476;8.484;2022-12-07T08:50:33;10.87;;;7.17;;
12947;SDS011;6539;49.476;8.484;2022-12-07T08:53:02;11.37;;;7.57;;
12947;SDS011;6539;49.476;8.484;2022-12-07T08:55:30;9.27;;;7.30;;
12947;SDS011;6539;49.476;8.484;2022-12-07T08:57:58;8.47;;;6.77;;
12947;SDS011;6539;49.476;8.484;2022-12-07T09:00:27;8.73;;;6.77;;
12947;SDS011;6539;49.476;8.484;2022-12-07T09:02:53;10.87;;;7.50;;
12947;SDS011;6539;49.476;8.484;2022-12-07T09:05:19;12.30;;;7.77;;
12947;SDS011;6539;49.476;8.484;2022-12-07T09:07:48;11.43;;;7.33;;
12947;SDS011;6539;49.476;8.484;2022-12-07T09:10:22;10.67;;;7.40;;
12947;SDS011;6539;49.476;8.484;2022-12-07T09:12:52;14.77;;;7.97;;
12947;SDS011;6539;49.476;8.484;2022-12-07T09:15:18;10.30;;;7.70;;
12947;SDS011;6539;49.476;8.484;2022-12-07T09:17:44;15.70;;;8.67;;
12947;SDS011;6539;49.476;8.484;2022-12-07T09:20:10;11.83;;;7.67;;
12947;SDS011;6539;49.476;8.484;2022-12-07T09:22:39;14.60;;;8.43;;
12947;SDS011;6539;49.476;8.484;2022-12-07T09:25:05;11.33;;;8.13;;
12947;SDS011;6539;49.476;8.484;2022-12-07T09:27:31;11.80;;;8.00;;
12947;SDS011;6539;49.476;8.484;2022-12-07T09:29:59;13.03;;;8.40;;
12947;SDS011;6539;49.476;8.484;2022-12-07T09:32:25;12.80;;;8.37;;
12947;SDS011;6539;49.476;8.484;2022-12-07T09:34:51;10.00;;;7.33;;
12947;SDS011;6539;49.476;8.484;2022-12-07T09:37:16;12.93;;;7.83;;
12947;SDS011;6539;49.476;8.484;2022-12-07T09:39:42;14.50;;;8.17;;
12947;SDS011;6539;49.476;8.484;2022-12-07T09:42:08;11.50;;;7.67;;
12947;SDS011;6539;49.476;8.484;2022-12-07T09:44:55;11.23;;;8.03;;
12947;SDS011;6539;49.476;8.484;2022-12-07T09:47:21;9.40;;;7.20;;
12947;SDS011;6539;49.476;8.484;2022-12-07T09:49:47;10.53;;;7.43;;
12947;SDS011;6539;49.476;8.484;2022-12-07T09:52:19;13.27;;;7.77;;
12947;SDS011;6539;49.476;8.484;2022-12-07T09:54:53;9.07;;;7.33;;
12947;SDS011;6539;49.476;8.484;2022-12-07T09:57:23;13.40;;;7.23;;
12947;SDS011;6539;49.476;8.484;2022-12-07T09:59:59;13.70;;;7.97;;
12947;SDS011;6539;49.476;8.484;2022-12-07T10:02:39;12.57;;;7.90;;
12947;SDS011;6539;49.476;8.484;2022-12-07T10:05:16;13.67;;;8.43;;
12947;SDS011;6539;49.476;8.484;2022-12-07T10:07:47;9.90;;;7.80;;
12947;SDS011;6539;49.476;8.484;2022-12-07T10:10:17;12.90;;;8.40;;
12947;SDS011;6539;49.476;8.484;2022-12-07T10:23:34;12.77;;;8.17;;
12947;SDS011;6539;49.476;8.484;2022-12-07T10:26:20;11.80;;;8.53;;
12947;SDS011;6539;49.476;8.484;2022-12-07T10:28:52;13.37;;;9.57;;
12947;SDS011;6539;49.476;8.484;2022-12-07T10:31:26;12.87;;;9.10;;
12947;SDS011;6539;49.476;8.484;2022-12-07T10:33:57;12.57;;;8.93;;
12947;SDS011;6539;49.476;8.484;2022-12-07T10:36:27;12.60;;;8.10;;
12947;SDS011;6539;49.476;8.484;2022-12-07T10:39:10;16.67;;;7.33;;
12947;SDS011;6539;49.476;8.484;2022-12-07T10:41:55;12.17;;;7.47;;
12947;SDS011;6539;49.476;8.484;2022-12-07T10:44:28;9.03;;;6.77;;
12947;SDS011;6539;49.476;8.484;2022-12-07T10:49:41;8.37;;;6.13;;
12947;SDS011;6539;49.476;8.484;2022-12-07T10:55:13;11.40;;;7.30;;
12947;SDS011;6539;49.476;8.484;2022-12-07T11:06:49;8.30;;;6.47;;
12947;SDS011;6539;49.476;8.484;2022-12-07T11:09:31;7.37;;;5.90;;
12947;SDS011;6539;49.476;8.484;2022-12-07T11:12:36;9.60;;;5.80;;
12947;SDS011;6539;49.476;8.484;2022-12-07T11:18:27;10.90;;;6.33;;
12947;SDS011;6539;49.476;8.484;2022-12-07T11:24:49;7.47;;;5.40;;
12947;SDS011;6539;49.476;8.484;2022-12-07T11:27:37;7.63;;;5.70;;
12947;SDS011;6539;49.476;8.484;2022-12-07T11:39:03;8.23;;;5.93;;
12947;SDS011;6539;49.476;8.484;2022-12-07T11:41:46;8.87;;;5.50;;
12947;SDS011;6539;49.476;8.484;2022-12-07T11:47:21;11.50;;;7.57;;
12947;SDS011;6539;49.476;8.484;2022-12-07T11:52:53;6.97;;;4.73;;
12947;SDS011;6539;49.476;8.484;2022-12-07T11:55:49;7.07;;;5.17;;
12947;SDS011;6539;49.476;8.484;2022-12-07T12:03:46;7.80;;;4.50;;
12947;SDS011;6539;49.476;8.484;2022-12-07T12:06:20;8.10;;;5.30;;
12947;SDS011;6539;49.476;8.484;2022-12-07T12:09:04;8.40;;;4.70;;
12947;SDS011;6539;49.476;8.484;2022-12-07T12:37:51;7.50;;;4.10;;
12947;SDS011;6539;49.476;8.484;2022-12-07T12:45:30;11.80;;;4.27;;
12947;SDS011;6539;49.476;8.484;2022-12-07T12:47:59;6.00;;;3.43;;
12947;SDS011;6539;49.476;8.484;2022-12-07T12:53:03;8.30;;;4.13;;
12947;SDS011;6539;49.476;8.484;2022-12-07T12:55:49;4.50;;;3.50;;
12947;SDS011;6539;49.476;8.484;2022-12-07T13:01:50;8.57;;;5.20;;
12947;SDS011;6539;49.476;8.484;2022-12-07T13:23:37;3.40;;;2.80;;
12947;SDS011;6539;49.476;8.484;2022-12-07T13:26:23;5.10;;;3.20;;
12947;SDS011;6539;49.476;8.484;2022-12-07T13:29:07;5.27;;;3.20;;
12947;SDS011;6539;49.476;8.484;2022-12-07T13:31:42;3.93;;;2.90;;
12947;SDS011;6539;49.476;8.484;2022-12-07T13:37:14;4.77;;;2.93;;
12947;SDS011;6539;49.476;8.484;2022-12-07T13:44:57;4.60;;;2.63;;
12947;SDS011;6539;49.476;8.484;2022-12-07T13:47:34;6.47;;;3.50;;
12947;SDS011;6539;49.476;8.484;2022-12-07T13:50:25;6.30;;;3.20;;
12947;SDS011;6539;49.476;8.484;2022-12-07T13:52:55;5.90;;;3.77;;
12947;SDS011;6539;49.476;8.484;2022-12-07T13:55:27;5.30;;;3.67;;
12947;SDS011;6539;49.476;8.484;2022-12-07T13:57:56;5.43;;;2.90;;
12947;SDS011;6539;49.476;8.484;2022-12-07T14:00:24;4.50;;;3.23;;
12947;SDS011;6539;49.476;8.484;2022-12-07T14:05:37;3.70;;;2.97;;
12947;SDS011;6539;49.476;8.484;2022-12-07T14:16:19;6.00;;;3.80;;
12947;SDS011;6539;49.476;8.484;2022-12-07T14:18:52;5.77;;;4.30;;
12947;SDS011;6539;49.476;8.484;2022-12-07T14:21:22;7.90;;;4.77;;
12947;SDS011;6539;49.476;8.484;2022-12-07T14:26:38;5.37;;;3.90;;
12947;SDS011;6539;49.476;8.484;2022-12-07T14:31:52;6.40;;;3.80;;
12947;SDS011;6539;49.476;8.484;2022-12-07T14:34:22;5.03;;;3.53;;
12947;SDS011;6539;49.476;8.484;2022-12-07T14:36:48;5.73;;;3.57;;
12947;SDS011;6539;49.476;8.484;2022-12-07T14:39:14;5.77;;;3.37;;
12947;SDS011;6539;49.476;8.484;2022-12-07T14:41:40;4.70;;;3.00;;
12947;SDS011;6539;49.476;8.484;2022-12-07T14:44:19;4.40;;;3.53;;
12947;SDS011;6539;49.476;8.484;2022-12-07T14:46:48;5.80;;;3.90;;
12947;SDS011;6539;49.476;8.484;2022-12-07T14:49:18;4.87;;;3.43;;
12947;SDS011;6539;49.476;8.484;2022-12-07T14:51:44;5.27;;;3.17;;
12947;SDS011;6539;49.476;8.484;2022-12-07T14:54:19;5.93;;;3.40;;
12947;SDS011;6539;49.476;8.484;2022-12-07T14:56:49;6.53;;;3.63;;
12947;SDS011;6539;49.476;8.484;2022-12-07T14:59:17;4.80;;;3.10;;
12947;SDS011;6539;49.476;8.484;2022-12-07T15:01:46;3.83;;;2.50;;
12947;SDS011;6539;49.476;8.484;2022-12-07T15:04:12;4.40;;;2.90;;
12947;SDS011;6539;49.476;8.484;2022-12-07T15:06:38;5.93;;;3.33;;
12947;SDS011;6539;49.476;8.484;2022-12-07T15:09:04;8.67;;;4.73;;
12947;SDS011;6539;49.476;8.484;2022-12-07T15:11:30;7.10;;;4.73;;
12947;SDS011;6539;49.476;8.484;2022-12-07T15:14:00;6.90;;;3.30;;
12947;SDS011;6539;49.476;8.484;2022-12-07T15:16:41;5.13;;;2.90;;
12947;SDS011;6539;49.476;8.484;2022-12-07T15:19:12;5.23;;;3.30;;
12947;SDS011;6539;49.476;8.484;2022-12-07T15:21:44;3.90;;;3.23;;
12947;SDS011;6539;49.476;8.484;2022-12-07T15:24:13;9.83;;;3.90;;
12947;SDS011;6539;49.476;8.484;2022-12-07T15:26:39;7.67;;;3.50;;
12947;SDS011;6539;49.476;8.484;2022-12-07T15:29:08;5.03;;;2.93;;
12947;SDS011;6539;49.476;8.484;2022-12-07T15:31:35;5.30;;;3.03;;
12947;SDS011;6539;49.476;8.484;2022-12-07T15:34:04;7.60;;;3.50;;
12947;SDS011;6539;49.476;8.484;2022-12-07T15:36:32;6.80;;;3.30;;
12947;SDS011;6539;49.476;8.484;2022-12-07T15:38:59;8.43;;;4.83;;
12947;SDS011;6539;49.476;8.484;2022-12-07T15:41:25;6.67;;;3.90;;
12947;SDS011;6539;49.476;8.484;2022-12-07T15:43:53;5.00;;;3.10;;
12947;SDS011;6539;49.476;8.484;2022-12-07T15:46:40;4.20;;;3.23;;
12947;SDS011;6539;49.476;8.484;2022-12-07T15:49:14;4.83;;;3.70;;
12947;SDS011;6539;49.476;8.484;2022-12-07T15:51:45;6.30;;;2.97;;
12947;SDS011;6539;49.476;8.484;2022-12-07T15:54:16;3.83;;;3.30;;
12947;SDS011;6539;49.476;8.484;2022-12-07T15:56:54;4.93;;;3.10;;
12947;SDS011;6539;49.476;8.484;2022-12-07T15:59:23;4.87;;;3.53;;
12947;SDS011;6539;49.476;8.484;2022-12-07T16:01:53;6.23;;;3.80;;
12947;SDS011;6539;49.476;8.484;2022-12-07T16:04:19;3.97;;;3.13;;
12947;SDS011;6539;49.476;8.484;2022-12-07T16:06:45;4.87;;;3.47;;
12947;SDS011;6539;49.476;8.484;2022-12-07T16:09:11;5.53;;;3.50;;
12947;SDS011;6539;49.476;8.484;2022-12-07T16:11:37;5.33;;;3.80;;
12947;SDS011;6539;49.476;8.484;2022-12-07T16:14:05;4.87;;;3.57;;
12947;SDS011;6539;49.476;8.484;2022-12-07T16:16:33;6.00;;;3.70;;
12947;SDS011;6539;49.476;8.484;2022-12-07T16:18:59;6.27;;;3.73;;
12947;SDS011;6539;49.476;8.484;2022-12-07T16:21:28;5.47;;;4.00;;
12947;SDS011;6539;49.476;8.484;2022-12-07T16:23:53;6.97;;;3.90;;
12947;SDS011;6539;49.476;8.484;2022-12-07T16:26:23;5.70;;;3.83;;
12947;SDS011;6539;49.476;8.484;2022-12-07T16:28:49;5.17;;;3.57;;
12947;SDS011;6539;49.476;8.484;2022-12-07T16:31:18;5.40;;;3.83;;
12947;SDS011;6539;49.476;8.484;2022-12-07T16:33:47;5.20;;;3.40;;
12947;SDS011;6539;49.476;8.484;2022-12-07T16:36:18;6.43;;;3.73;;
12947;SDS011;6539;49.476;8.484;2022-12-07T16:38:52;7.20;;;4.07;;
12947;SDS011;6539;49.476;8.484;2022-12-07T16:41:18;5.13;;;3.57;;
12947;SDS011;6539;49.476;8.484;2022-12-07T16:43:44;6.67;;;4.17;;
12947;SDS011;6539;49.476;8.484;2022-12-07T16:46:10;5.90;;;4.07;;
12947;SDS011;6539;49.476;8.484;2022-12-07T16:48:40;7.50;;;4.83;;
12947;SDS011;6539;49.476;8.484;2022-12-07T16:51:06;6.50;;;4.47;;
12947;SDS011;6539;49.476;8.484;2022-12-07T16:53:37;7.33;;;4.57;;
12947;SDS011;6539;49.476;8.484;2022-12-07T16:56:11;6.83;;;4.20;;
12947;SDS011;6539;49.476;8.484;2022-12-07T16:58:43;6.20;;;4.70;;
12947;SDS011;6539;49.476;8.484;2022-12-07T17:01:10;8.23;;;5.60;;
12947;SDS011;6539;49.476;8.484;2022-12-07T17:03:47;8.23;;;5.27;;
12947;SDS011;6539;49.476;8.484;2022-12-07T17:06:17;6.07;;;4.77;;
12947;SDS011;6539;49.476;8.484;2022-12-07T17:08:51;11.03;;;4.90;;
12947;SDS011;6539;49.476;8.484;2022-12-07T17:11:29;5.40;;;4.43;;
12947;SDS011;6539;49.476;8.484;2022-12-07T17:13:58;10.07;;;4.97;;
12947;SDS011;6539;49.476;8.484;2022-12-07T17:16:42;8.40;;;5.20;;
12947;SDS011;6539;49.476;8.484;2022-12-07T17:19:11;8.30;;;5.37;;
12947;SDS011;6539;49.476;8.484;2022-12-07T17:21:44;8.67;;;5.37;;
12947;SDS011;6539;49.476;8.484;2022-12-07T17:24:12;10.77;;;6.17;;
12947;SDS011;6539;49.476;8.484;2022-12-07T17:26:41;9.07;;;5.87;;
12947;SDS011;6539;49.476;8.484;2022-12-07T17:29:11;6.70;;;5.40;;
12947;SDS011;6539;49.476;8.484;2022-12-07T17:31:44;8.57;;;5.43;;
12947;SDS011;6539;49.476;8.484;2022-12-07T17:34:12;10.13;;;5.20;;
12947;SDS011;6539;49.476;8.484;2022-12-07T17:36:40;8.13;;;5.30;;
12947;SDS011;6539;49.476;8.484;2022-12-07T17:39:10;7.17;;;5.87;;
12947;SDS011;6539;49.476;8.484;2022-12-07T17:41:41;7.57;;;6.23;;
12947;SDS011;6539;49.476;8.484;2022-12-07T17:44:26;9.77;;;6.80;;
12947;SDS011;6539;49.476;8.484;2022-12-07T17:46:54;11.27;;;5.60;;
12947;SDS011;6539;49.476;8.484;2022-12-07T17:49:28;8.90;;;5.83;;
12947;SDS011;6539;49.476;8.484;2022-12-07T17:51:57;6.73;;;5.03;;
12947;SDS011;6539;49.476;8.484;2022-12-07T17:54:41;8.20;;;5.97;;
12947;SDS011;6539;49.476;8.484;2022-12-07T17:57:07;8.30;;;6.53;;
12947;SDS011;6539;49.476;8.484;2022-12-07T17:59:33;8.37;;;6.13;;
12947;SDS011;6539;49.476;8.484;2022-12-07T18:01:59;11.70;;;8.10;;
12947;SDS011;6539;49.476;8.484;2022-12-07T18:04:28;10.83;;;7.30;;
12947;SDS011;6539;49.476;8.484;2022-12-07T18:06:58;11.23;;;7.90;;
12947;SDS011;6539;49.476;8.484;2022-12-07T18:09:24;11.70;;;8.63;;
12947;SDS011;6539;49.476;8.484;2022-12-07T18:11:52;14.80;;;9.00;;
12947;SDS011;6539;49.476;8.484;2022-12-07T18:14:18;12.73;;;8.30;;
12947;SDS011;6539;49.476;8.484;2022-12-07T18:16:48;13.37;;;8.63;;
12947;SDS011;6539;49.476;8.484;2022-12-07T18:19:15;13.07;;;9.00;;
12947;SDS011;6539;49.476;8.484;2022-12-07T18:21:41;13.23;;;8.87;;
12947;SDS011;6539;49.476;8.484;2022-12-07T18:24:09;16.10;;;9.57;;